Аэропорт: Могилёв. Могилёв

ICAO: UMOO

METAR:
Информация по данной станции не доступна
METAR:
2019-09-21 11:00:00
TAF UMOO 211100Z 2112/2121 23005G10MPS 6000 -RA OVC012 TEMPO 2112/2115 26007G12MPS 2000 SHRA BR BKN005 BKN015CB TEMPO 2115/2121 29009G14MPS 1200 SHRA BR BKN003 BKN015CB